sensor_id;sensor_type;location;lat;lon;timestamp;temperature;humidity
37646;DHT22;23489;49.600;6.138;2023-11-25T00:00:10;3.30;99.90
37646;DHT22;23489;49.600;6.138;2023-11-25T00:02:39;3.30;99.90
37646;DHT22;23489;49.600;6.138;2023-11-25T00:05:05;3.40;99.90
37646;DHT22;23489;49.600;6.138;2023-11-25T00:07:30;3.30;99.90
37646;DHT22;23489;49.600;6.138;2023-11-25T00:09:58;3.30;99.90
37646;DHT22;23489;49.600;6.138;2023-11-25T00:12:25;3.40;99.90
37646;DHT22;23489;49.600;6.138;2023-11-25T00:14:50;3.40;99.90
37646;DHT22;23489;49.600;6.138;2023-11-25T00:17:17;3.40;99.90
37646;DHT22;23489;49.600;6.138;2023-11-25T00:19:43;3.50;99.90
37646;DHT22;23489;49.600;6.138;2023-11-25T00:22:08;3.50;99.90
37646;DHT22;23489;49.600;6.138;2023-11-25T00:24:34;3.60;99.90
37646;DHT22;23489;49.600;6.138;2023-11-25T00:27:01;3.60;99.90
37646;DHT22;23489;49.600;6.138;2023-11-25T00:29:27;3.60;99.90
37646;DHT22;23489;49.600;6.138;2023-11-25T00:31:54;3.60;99.90
37646;DHT22;23489;49.600;6.138;2023-11-25T00:34:23;3.60;99.90
37646;DHT22;23489;49.600;6.138;2023-11-25T00:36:50;3.60;99.90
37646;DHT22;23489;49.600;6.138;2023-11-25T00:39:17;3.70;99.90
37646;DHT22;23489;49.600;6.138;2023-11-25T00:41:46;3.70;99.90
37646;DHT22;23489;49.600;6.138;2023-11-25T00:44:12;3.70;99.90
37646;DHT22;23489;49.600;6.138;2023-11-25T00:46:37;3.70;99.90
37646;DHT22;23489;49.600;6.138;2023-11-25T00:49:03;3.80;99.90
37646;DHT22;23489;49.600;6.138;2023-11-25T00:51:30;3.80;99.90
37646;DHT22;23489;49.600;6.138;2023-11-25T00:53:57;3.80;99.90
37646;DHT22;23489;49.600;6.138;2023-11-25T00:56:23;3.80;99.90
37646;DHT22;23489;49.600;6.138;2023-11-25T00:58:49;3.80;99.90
37646;DHT22;23489;49.600;6.138;2023-11-25T01:01:15;3.80;99.90
37646;DHT22;23489;49.600;6.138;2023-11-25T01:03:40;3.80;99.90
37646;DHT22;23489;49.600;6.138;2023-11-25T01:06:09;3.80;99.90
37646;DHT22;23489;49.600;6.138;2023-11-25T01:08:35;3.80;99.90
37646;DHT22;23489;49.600;6.138;2023-11-25T01:11:02;3.80;99.90
37646;DHT22;23489;49.600;6.138;2023-11-25T01:13:28;3.80;99.90
37646;DHT22;23489;49.600;6.138;2023-11-25T01:15:54;3.70;99.90
37646;DHT22;23489;49.600;6.138;2023-11-25T01:18:20;3.80;99.90
37646;DHT22;23489;49.600;6.138;2023-11-25T01:20:46;3.80;99.90
37646;DHT22;23489;49.600;6.138;2023-11-25T01:23:12;3.70;99.90
37646;DHT22;23489;49.600;6.138;2023-11-25T01:25:38;3.60;99.90
37646;DHT22;23489;49.600;6.138;2023-11-25T01:28:03;3.60;99.90
37646;DHT22;23489;49.600;6.138;2023-11-25T01:30:29;3.60;99.90
37646;DHT22;23489;49.600;6.138;2023-11-25T01:32:59;3.50;99.90
37646;DHT22;23489;49.600;6.138;2023-11-25T01:35:25;3.50;99.90
37646;DHT22;23489;49.600;6.138;2023-11-25T01:37:50;3.50;99.90
37646;DHT22;23489;49.600;6.138;2023-11-25T01:40:16;3.50;99.90
37646;DHT22;23489;49.600;6.138;2023-11-25T01:42:41;3.40;99.90
37646;DHT22;23489;49.600;6.138;2023-11-25T01:45:08;3.40;99.90
37646;DHT22;23489;49.600;6.138;2023-11-25T01:47:34;3.40;99.90
37646;DHT22;23489;49.600;6.138;2023-11-25T01:50:00;3.40;99.90
37646;DHT22;23489;49.600;6.138;2023-11-25T01:52:27;3.50;99.90
37646;DHT22;23489;49.600;6.138;2023-11-25T01:54:54;3.50;99.90
37646;DHT22;23489;49.600;6.138;2023-11-25T01:57:20;3.50;99.90
37646;DHT22;23489;49.600;6.138;2023-11-25T01:59:47;3.50;99.90
37646;DHT22;23489;49.600;6.138;2023-11-25T02:02:14;3.60;99.90
37646;DHT22;23489;49.600;6.138;2023-11-25T02:04:40;3.60;99.90
37646;DHT22;23489;49.600;6.138;2023-11-25T02:07:06;3.60;99.90
37646;DHT22;23489;49.600;6.138;2023-11-25T02:09:31;3.60;99.90
37646;DHT22;23489;49.600;6.138;2023-11-25T02:11:59;3.60;99.90
37646;DHT22;23489;49.600;6.138;2023-11-25T02:14:25;3.60;99.90
37646;DHT22;23489;49.600;6.138;2023-11-25T02:16:51;3.60;99.90
37646;DHT22;23489;49.600;6.138;2023-11-25T02:19:20;3.60;99.90
37646;DHT22;23489;49.600;6.138;2023-11-25T02:21:46;3.60;99.90
37646;DHT22;23489;49.600;6.138;2023-11-25T02:24:12;3.50;99.90
37646;DHT22;23489;49.600;6.138;2023-11-25T02:26:38;3.50;99.90
37646;DHT22;23489;49.600;6.138;2023-11-25T02:29:04;3.40;99.90
37646;DHT22;23489;49.600;6.138;2023-11-25T02:31:31;3.40;99.90
37646;DHT22;23489;49.600;6.138;2023-11-25T02:33:57;3.30;99.90
37646;DHT22;23489;49.600;6.138;2023-11-25T02:36:24;3.40;99.90
37646;DHT22;23489;49.600;6.138;2023-11-25T02:38:49;3.30;99.90
37646;DHT22;23489;49.600;6.138;2023-11-25T02:41:15;3.40;99.90
37646;DHT22;23489;49.600;6.138;2023-11-25T02:43:41;3.30;99.90
37646;DHT22;23489;49.600;6.138;2023-11-25T02:46:06;3.30;99.90
37646;DHT22;23489;49.600;6.138;2023-11-25T02:48:33;3.30;99.90
37646;DHT22;23489;49.600;6.138;2023-11-25T02:51:00;3.20;99.90
37646;DHT22;23489;49.600;6.138;2023-11-25T02:53:26;3.30;99.90
37646;DHT22;23489;49.600;6.138;2023-11-25T02:55:52;3.20;99.90
37646;DHT22;23489;49.600;6.138;2023-11-25T02:58:17;3.20;99.90
37646;DHT22;23489;49.600;6.138;2023-11-25T03:00:43;3.20;99.90
37646;DHT22;23489;49.600;6.138;2023-11-25T03:03:09;3.20;99.90
37646;DHT22;23489;49.600;6.138;2023-11-25T03:05:38;3.10;99.90
37646;DHT22;23489;49.600;6.138;2023-11-25T03:08:05;3.10;99.90
37646;DHT22;23489;49.600;6.138;2023-11-25T03:10:31;3.10;99.90
37646;DHT22;23489;49.600;6.138;2023-11-25T03:12:56;3.00;99.90
37646;DHT22;23489;49.600;6.138;2023-11-25T03:15:22;3.00;99.90
37646;DHT22;23489;49.600;6.138;2023-11-25T03:17:48;3.00;99.90
37646;DHT22;23489;49.600;6.138;2023-11-25T03:20:13;3.00;99.90
37646;DHT22;23489;49.600;6.138;2023-11-25T03:22:39;3.00;99.90
37646;DHT22;23489;49.600;6.138;2023-11-25T03:25:05;3.00;99.90
37646;DHT22;23489;49.600;6.138;2023-11-25T03:27:31;3.00;99.90
37646;DHT22;23489;49.600;6.138;2023-11-25T03:29:57;3.00;99.90
37646;DHT22;23489;49.600;6.138;2023-11-25T03:32:22;3.10;99.90
37646;DHT22;23489;49.600;6.138;2023-11-25T03:34:51;3.10;99.90
37646;DHT22;23489;49.600;6.138;2023-11-25T03:37:16;3.10;99.90
37646;DHT22;23489;49.600;6.138;2023-11-25T03:39:42;3.10;99.90
37646;DHT22;23489;49.600;6.138;2023-11-25T03:42:08;3.00;99.90
37646;DHT22;23489;49.600;6.138;2023-11-25T03:44:34;3.00;99.90
37646;DHT22;23489;49.600;6.138;2023-11-25T03:47:01;2.90;99.90
37646;DHT22;23489;49.600;6.138;2023-11-25T03:49:27;2.90;99.90
37646;DHT22;23489;49.600;6.138;2023-11-25T03:51:52;2.90;99.90
37646;DHT22;23489;49.600;6.138;2023-11-25T03:54:18;2.90;99.90
37646;DHT22;23489;49.600;6.138;2023-11-25T03:56:44;2.90;99.90
37646;DHT22;23489;49.600;6.138;2023-11-25T03:59:10;2.90;99.90
37646;DHT22;23489;49.600;6.138;2023-11-25T04:01:36;2.90;99.90
37646;DHT22;23489;49.600;6.138;2023-11-25T04:04:02;2.90;99.90
37646;DHT22;23489;49.600;6.138;2023-11-25T04:06:29;3.00;99.90
37646;DHT22;23489;49.600;6.138;2023-11-25T04:08:55;3.10;99.90
37646;DHT22;23489;49.600;6.138;2023-11-25T04:11:21;3.00;99.90
37646;DHT22;23489;49.600;6.138;2023-11-25T04:13:46;3.00;99.90
37646;DHT22;23489;49.600;6.138;2023-11-25T04:16:12;3.10;99.90
37646;DHT22;23489;49.600;6.138;2023-11-25T04:18:38;3.10;99.90
37646;DHT22;23489;49.600;6.138;2023-11-25T04:21:05;3.10;99.90
37646;DHT22;23489;49.600;6.138;2023-11-25T04:23:31;3.10;99.90
37646;DHT22;23489;49.600;6.138;2023-11-25T04:25:57;3.10;99.90
37646;DHT22;23489;49.600;6.138;2023-11-25T04:28:23;3.10;99.90
37646;DHT22;23489;49.600;6.138;2023-11-25T04:30:49;3.00;99.90
37646;DHT22;23489;49.600;6.138;2023-11-25T04:33:14;3.10;99.90
37646;DHT22;23489;49.600;6.138;2023-11-25T04:35:40;3.00;99.90
37646;DHT22;23489;49.600;6.138;2023-11-25T04:38:06;3.10;99.90
37646;DHT22;23489;49.600;6.138;2023-11-25T04:40:32;3.10;99.90
37646;DHT22;23489;49.600;6.138;2023-11-25T04:42:58;3.10;99.90
37646;DHT22;23489;49.600;6.138;2023-11-25T04:45:24;3.00;99.90
37646;DHT22;23489;49.600;6.138;2023-11-25T04:47:51;3.00;99.90
37646;DHT22;23489;49.600;6.138;2023-11-25T04:50:17;3.10;99.90
37646;DHT22;23489;49.600;6.138;2023-11-25T04:52:43;3.10;99.90
37646;DHT22;23489;49.600;6.138;2023-11-25T04:55:12;3.00;99.90
37646;DHT22;23489;49.600;6.138;2023-11-25T04:57:38;3.00;99.90
37646;DHT22;23489;49.600;6.138;2023-11-25T05:00:05;3.00;99.90
37646;DHT22;23489;49.600;6.138;2023-11-25T05:02:35;3.00;99.90
37646;DHT22;23489;49.600;6.138;2023-11-25T05:05:03;2.90;99.90
37646;DHT22;23489;49.600;6.138;2023-11-25T05:07:30;2.90;99.90
37646;DHT22;23489;49.600;6.138;2023-11-25T05:09:56;2.80;99.90
37646;DHT22;23489;49.600;6.138;2023-11-25T05:12:22;2.80;99.90
37646;DHT22;23489;49.600;6.138;2023-11-25T05:14:47;2.80;99.90
37646;DHT22;23489;49.600;6.138;2023-11-25T05:17:13;2.80;99.90
37646;DHT22;23489;49.600;6.138;2023-11-25T05:19:38;2.70;99.90
37646;DHT22;23489;49.600;6.138;2023-11-25T05:22:04;2.60;99.90
37646;DHT22;23489;49.600;6.138;2023-11-25T05:24:30;2.60;99.90
37646;DHT22;23489;49.600;6.138;2023-11-25T05:26:56;2.50;99.90
37646;DHT22;23489;49.600;6.138;2023-11-25T05:29:21;2.50;99.90
37646;DHT22;23489;49.600;6.138;2023-11-25T05:31:47;2.40;99.90
37646;DHT22;23489;49.600;6.138;2023-11-25T05:34:13;2.40;99.90
37646;DHT22;23489;49.600;6.138;2023-11-25T05:36:39;2.40;99.90
37646;DHT22;23489;49.600;6.138;2023-11-25T05:39:05;2.30;99.90
37646;DHT22;23489;49.600;6.138;2023-11-25T05:41:38;2.30;99.90
37646;DHT22;23489;49.600;6.138;2023-11-25T05:44:06;2.30;99.90
37646;DHT22;23489;49.600;6.138;2023-11-25T05:46:36;2.30;99.90
37646;DHT22;23489;49.600;6.138;2023-11-25T05:49:02;2.30;99.90
37646;DHT22;23489;49.600;6.138;2023-11-25T05:51:33;2.30;99.90
37646;DHT22;23489;49.600;6.138;2023-11-25T05:53:59;2.30;99.90
37646;DHT22;23489;49.600;6.138;2023-11-25T05:56:25;2.30;99.90
37646;DHT22;23489;49.600;6.138;2023-11-25T05:58:55;2.20;99.90
37646;DHT22;23489;49.600;6.138;2023-11-25T06:01:22;2.30;99.90
37646;DHT22;23489;49.600;6.138;2023-11-25T06:03:49;2.20;99.90
37646;DHT22;23489;49.600;6.138;2023-11-25T06:06:18;2.20;99.90
37646;DHT22;23489;49.600;6.138;2023-11-25T06:08:49;2.20;99.90
37646;DHT22;23489;49.600;6.138;2023-11-25T06:11:22;2.20;99.90
37646;DHT22;23489;49.600;6.138;2023-11-25T06:13:47;2.20;99.90
37646;DHT22;23489;49.600;6.138;2023-11-25T06:16:14;2.20;99.90
37646;DHT22;23489;49.600;6.138;2023-11-25T06:18:40;2.30;99.90
37646;DHT22;23489;49.600;6.138;2023-11-25T06:21:06;2.30;99.90
37646;DHT22;23489;49.600;6.138;2023-11-25T06:23:32;2.40;99.90
37646;DHT22;23489;49.600;6.138;2023-11-25T06:25:58;2.30;99.90
37646;DHT22;23489;49.600;6.138;2023-11-25T06:28:25;2.30;99.90
37646;DHT22;23489;49.600;6.138;2023-11-25T06:30:51;2.30;99.90
37646;DHT22;23489;49.600;6.138;2023-11-25T06:33:20;2.20;99.90
37646;DHT22;23489;49.600;6.138;2023-11-25T06:35:47;2.20;99.90
37646;DHT22;23489;49.600;6.138;2023-11-25T06:38:13;2.10;99.90
37646;DHT22;23489;49.600;6.138;2023-11-25T06:40:39;2.20;99.90
37646;DHT22;23489;49.600;6.138;2023-11-25T06:43:06;2.10;99.90
37646;DHT22;23489;49.600;6.138;2023-11-25T06:45:32;2.10;99.90
37646;DHT22;23489;49.600;6.138;2023-11-25T06:47:59;2.10;99.90
37646;DHT22;23489;49.600;6.138;2023-11-25T06:50:25;2.10;99.90
37646;DHT22;23489;49.600;6.138;2023-11-25T06:52:51;2.10;99.90
37646;DHT22;23489;49.600;6.138;2023-11-25T06:55:20;2.10;99.90
37646;DHT22;23489;49.600;6.138;2023-11-25T06:57:47;2.10;99.90
37646;DHT22;23489;49.600;6.138;2023-11-25T07:00:13;2.10;99.90
37646;DHT22;23489;49.600;6.138;2023-11-25T07:02:39;2.10;99.90
37646;DHT22;23489;49.600;6.138;2023-11-25T07:05:06;2.10;99.90
37646;DHT22;23489;49.600;6.138;2023-11-25T07:07:33;2.10;99.90
37646;DHT22;23489;49.600;6.138;2023-11-25T07:09:59;2.10;99.90
37646;DHT22;23489;49.600;6.138;2023-11-25T07:12:25;2.10;99.90
37646;DHT22;23489;49.600;6.138;2023-11-25T07:14:50;2.10;99.90
37646;DHT22;23489;49.600;6.138;2023-11-25T07:17:16;2.10;99.90
37646;DHT22;23489;49.600;6.138;2023-11-25T07:19:42;2.10;99.90
37646;DHT22;23489;49.600;6.138;2023-11-25T07:22:08;2.10;99.90
37646;DHT22;23489;49.600;6.138;2023-11-25T07:24:35;2.20;99.90
37646;DHT22;23489;49.600;6.138;2023-11-25T07:27:01;2.20;99.90
37646;DHT22;23489;49.600;6.138;2023-11-25T07:29:31;2.40;99.90
37646;DHT22;23489;49.600;6.138;2023-11-25T07:32:00;2.50;99.90
37646;DHT22;23489;49.600;6.138;2023-11-25T07:34:32;2.40;99.90
37646;DHT22;23489;49.600;6.138;2023-11-25T07:36:58;2.50;99.90
37646;DHT22;23489;49.600;6.138;2023-11-25T07:39:23;2.60;99.90
37646;DHT22;23489;49.600;6.138;2023-11-25T07:41:50;2.60;99.90
37646;DHT22;23489;49.600;6.138;2023-11-25T07:44:22;2.70;99.90
37646;DHT22;23489;49.600;6.138;2023-11-25T07:46:49;2.80;99.90
37646;DHT22;23489;49.600;6.138;2023-11-25T07:49:16;2.70;99.90
37646;DHT22;23489;49.600;6.138;2023-11-25T07:51:42;2.70;99.90
37646;DHT22;23489;49.600;6.138;2023-11-25T07:54:07;2.70;99.90
37646;DHT22;23489;49.600;6.138;2023-11-25T07:56:36;2.80;99.90
37646;DHT22;23489;49.600;6.138;2023-11-25T07:59:03;2.80;99.90
37646;DHT22;23489;49.600;6.138;2023-11-25T08:01:29;2.80;99.90
37646;DHT22;23489;49.600;6.138;2023-11-25T08:03:55;3.00;99.90
37646;DHT22;23489;49.600;6.138;2023-11-25T08:06:20;3.10;99.90
37646;DHT22;23489;49.600;6.138;2023-11-25T08:08:51;3.20;99.90
37646;DHT22;23489;49.600;6.138;2023-11-25T08:11:24;3.20;99.90
37646;DHT22;23489;49.600;6.138;2023-11-25T08:13:50;3.30;99.90
37646;DHT22;23489;49.600;6.138;2023-11-25T08:16:16;3.40;99.90
37646;DHT22;23489;49.600;6.138;2023-11-25T08:18:42;3.50;99.90
37646;DHT22;23489;49.600;6.138;2023-11-25T08:21:07;3.60;99.90
37646;DHT22;23489;49.600;6.138;2023-11-25T08:23:33;3.60;99.90
37646;DHT22;23489;49.600;6.138;2023-11-25T08:25:59;3.50;99.90
37646;DHT22;23489;49.600;6.138;2023-11-25T08:28:25;3.50;99.90
37646;DHT22;23489;49.600;6.138;2023-11-25T08:30:51;3.40;99.90
37646;DHT22;23489;49.600;6.138;2023-11-25T08:33:16;3.30;99.90
37646;DHT22;23489;49.600;6.138;2023-11-25T08:35:43;3.30;99.90
37646;DHT22;23489;49.600;6.138;2023-11-25T08:38:09;3.40;99.90
37646;DHT22;23489;49.600;6.138;2023-11-25T08:40:35;3.40;99.90
37646;DHT22;23489;49.600;6.138;2023-11-25T08:43:01;3.40;99.90
37646;DHT22;23489;49.600;6.138;2023-11-25T08:45:37;3.40;99.90
37646;DHT22;23489;49.600;6.138;2023-11-25T08:48:04;3.40;99.90
37646;DHT22;23489;49.600;6.138;2023-11-25T08:50:31;3.40;99.90
37646;DHT22;23489;49.600;6.138;2023-11-25T08:52:58;3.40;99.90
37646;DHT22;23489;49.600;6.138;2023-11-25T08:55:27;3.40;99.90
37646;DHT22;23489;49.600;6.138;2023-11-25T08:57:53;3.50;99.90
37646;DHT22;23489;49.600;6.138;2023-11-25T09:00:19;3.50;99.90
37646;DHT22;23489;49.600;6.138;2023-11-25T09:02:46;3.50;99.90
37646;DHT22;23489;49.600;6.138;2023-11-25T09:05:17;3.50;99.90
37646;DHT22;23489;49.600;6.138;2023-11-25T09:07:48;3.60;99.90
37646;DHT22;23489;49.600;6.138;2023-11-25T09:10:16;3.60;99.90
37646;DHT22;23489;49.600;6.138;2023-11-25T09:12:42;3.50;99.90
37646;DHT22;23489;49.600;6.138;2023-11-25T09:15:08;3.60;99.90
37646;DHT22;23489;49.600;6.138;2023-11-25T09:17:34;3.70;99.90
37646;DHT22;23489;49.600;6.138;2023-11-25T09:20:06;3.80;99.90
37646;DHT22;23489;49.600;6.138;2023-11-25T09:22:36;4.00;99.90
37646;DHT22;23489;49.600;6.138;2023-11-25T09:25:03;4.20;99.90
37646;DHT22;23489;49.600;6.138;2023-11-25T09:27:29;4.20;99.90
37646;DHT22;23489;49.600;6.138;2023-11-25T09:29:55;4.50;99.90
37646;DHT22;23489;49.600;6.138;2023-11-25T09:32:21;4.90;99.90
37646;DHT22;23489;49.600;6.138;2023-11-25T09:34:48;5.10;99.90
37646;DHT22;23489;49.600;6.138;2023-11-25T09:37:14;5.00;99.90
37646;DHT22;23489;49.600;6.138;2023-11-25T09:39:41;4.90;99.90
37646;DHT22;23489;49.600;6.138;2023-11-25T09:42:06;4.70;99.90
37646;DHT22;23489;49.600;6.138;2023-11-25T09:44:34;4.70;99.90
37646;DHT22;23489;49.600;6.138;2023-11-25T09:47:00;4.50;99.90
37646;DHT22;23489;49.600;6.138;2023-11-25T09:49:26;4.60;99.90
37646;DHT22;23489;49.600;6.138;2023-11-25T09:51:51;4.50;99.90
37646;DHT22;23489;49.600;6.138;2023-11-25T09:54:21;4.40;99.90
37646;DHT22;23489;49.600;6.138;2023-11-25T09:56:47;4.30;99.90
37646;DHT22;23489;49.600;6.138;2023-11-25T09:59:13;4.30;99.90
37646;DHT22;23489;49.600;6.138;2023-11-25T10:01:38;4.20;99.90
37646;DHT22;23489;49.600;6.138;2023-11-25T10:04:05;4.10;99.90
37646;DHT22;23489;49.600;6.138;2023-11-25T10:06:32;4.10;99.90
37646;DHT22;23489;49.600;6.138;2023-11-25T10:08:58;4.20;99.90
37646;DHT22;23489;49.600;6.138;2023-11-25T10:11:24;4.30;99.90
37646;DHT22;23489;49.600;6.138;2023-11-25T10:13:50;4.40;99.90
37646;DHT22;23489;49.600;6.138;2023-11-25T10:16:34;4.40;99.90
37646;DHT22;23489;49.600;6.138;2023-11-25T10:19:00;4.20;99.90
37646;DHT22;23489;49.600;6.138;2023-11-25T10:21:25;4.20;99.90
37646;DHT22;23489;49.600;6.138;2023-11-25T10:23:51;4.10;99.90
37646;DHT22;23489;49.600;6.138;2023-11-25T10:26:19;4.20;99.90
37646;DHT22;23489;49.600;6.138;2023-11-25T10:28:46;4.20;99.90
37646;DHT22;23489;49.600;6.138;2023-11-25T10:31:13;4.20;99.90
37646;DHT22;23489;49.600;6.138;2023-11-25T10:33:42;4.10;99.90
37646;DHT22;23489;49.600;6.138;2023-11-25T10:36:08;4.10;99.90
37646;DHT22;23489;49.600;6.138;2023-11-25T10:38:35;4.20;99.90
37646;DHT22;23489;49.600;6.138;2023-11-25T10:41:05;4.20;99.90
37646;DHT22;23489;49.600;6.138;2023-11-25T10:43:31;4.20;99.90
37646;DHT22;23489;49.600;6.138;2023-11-25T10:46:06;4.10;99.90
37646;DHT22;23489;49.600;6.138;2023-11-25T10:48:32;4.20;99.90
37646;DHT22;23489;49.600;6.138;2023-11-25T10:50:58;4.30;99.90
37646;DHT22;23489;49.600;6.138;2023-11-25T10:53:28;4.40;99.90
37646;DHT22;23489;49.600;6.138;2023-11-25T10:55:55;4.30;99.90
37646;DHT22;23489;49.600;6.138;2023-11-25T10:58:21;4.40;99.90
37646;DHT22;23489;49.600;6.138;2023-11-25T11:00:47;4.40;99.90
37646;DHT22;23489;49.600;6.138;2023-11-25T11:03:13;4.40;99.90
37646;DHT22;23489;49.600;6.138;2023-11-25T11:06:14;4.50;99.90
37646;DHT22;23489;49.600;6.138;2023-11-25T11:08:31;4.30;99.90
37646;DHT22;23489;49.600;6.138;2023-11-25T11:11:07;4.50;99.90
37646;DHT22;23489;49.600;6.138;2023-11-25T11:13:34;4.50;99.90
37646;DHT22;23489;49.600;6.138;2023-11-25T11:16:07;4.60;99.90
37646;DHT22;23489;49.600;6.138;2023-11-25T11:18:34;4.80;99.90
37646;DHT22;23489;49.600;6.138;2023-11-25T11:21:02;4.50;99.90
37646;DHT22;23489;49.600;6.138;2023-11-25T11:23:30;4.30;99.90
37646;DHT22;23489;49.600;6.138;2023-11-25T11:29:03;4.40;99.90
37646;DHT22;23489;49.600;6.138;2023-11-25T11:34:03;4.70;99.90
37646;DHT22;23489;49.600;6.138;2023-11-25T11:36:29;4.80;99.90
37646;DHT22;23489;49.600;6.138;2023-11-25T11:38:55;4.90;99.90
37646;DHT22;23489;49.600;6.138;2023-11-25T11:43:59;5.00;99.90
37646;DHT22;23489;49.600;6.138;2023-11-25T11:46:25;4.70;99.90
37646;DHT22;23489;49.600;6.138;2023-11-25T11:48:52;4.60;99.90
37646;DHT22;23489;49.600;6.138;2023-11-25T11:51:18;4.70;99.90
37646;DHT22;23489;49.600;6.138;2023-11-25T11:53:44;4.90;99.90
37646;DHT22;23489;49.600;6.138;2023-11-25T11:56:10;4.80;99.90
37646;DHT22;23489;49.600;6.138;2023-11-25T11:58:38;4.80;99.90
37646;DHT22;23489;49.600;6.138;2023-11-25T12:01:20;4.90;99.90
37646;DHT22;23489;49.600;6.138;2023-11-25T12:03:45;4.80;99.90
37646;DHT22;23489;49.600;6.138;2023-11-25T12:06:11;4.80;99.90
37646;DHT22;23489;49.600;6.138;2023-11-25T12:08:42;4.90;99.90
37646;DHT22;23489;49.600;6.138;2023-11-25T12:11:07;5.00;99.90
37646;DHT22;23489;49.600;6.138;2023-11-25T12:13:33;5.10;99.90
37646;DHT22;23489;49.600;6.138;2023-11-25T12:16:02;5.00;99.90
37646;DHT22;23489;49.600;6.138;2023-11-25T12:18:32;4.90;99.90
37646;DHT22;23489;49.600;6.138;2023-11-25T12:20:58;4.90;99.90
37646;DHT22;23489;49.600;6.138;2023-11-25T12:23:27;4.90;99.90
37646;DHT22;23489;49.600;6.138;2023-11-25T12:25:53;4.80;99.90
37646;DHT22;23489;49.600;6.138;2023-11-25T12:28:20;4.70;99.90
37646;DHT22;23489;49.600;6.138;2023-11-25T12:30:45;4.50;99.90
37646;DHT22;23489;49.600;6.138;2023-11-25T12:33:11;4.50;99.90
37646;DHT22;23489;49.600;6.138;2023-11-25T12:35:39;4.50;99.90
37646;DHT22;23489;49.600;6.138;2023-11-25T12:38:05;4.60;99.90
37646;DHT22;23489;49.600;6.138;2023-11-25T12:40:34;4.60;99.90
37646;DHT22;23489;49.600;6.138;2023-11-25T12:43:01;4.60;99.90
37646;DHT22;23489;49.600;6.138;2023-11-25T12:45:38;4.70;99.90
37646;DHT22;23489;49.600;6.138;2023-11-25T12:48:07;4.70;99.90
37646;DHT22;23489;49.600;6.138;2023-11-25T12:50:34;4.70;99.90
37646;DHT22;23489;49.600;6.138;2023-11-25T12:53:04;4.70;99.90
37646;DHT22;23489;49.600;6.138;2023-11-25T12:55:40;4.80;99.90
37646;DHT22;23489;49.600;6.138;2023-11-25T12:58:13;4.80;99.90
37646;DHT22;23489;49.600;6.138;2023-11-25T13:03:11;4.80;99.90
37646;DHT22;23489;49.600;6.138;2023-11-25T13:05:36;4.90;99.90
37646;DHT22;23489;49.600;6.138;2023-11-25T13:08:18;4.90;99.90
37646;DHT22;23489;49.600;6.138;2023-11-25T13:10:43;5.00;99.90
37646;DHT22;23489;49.600;6.138;2023-11-25T13:13:09;4.90;99.90
37646;DHT22;23489;49.600;6.138;2023-11-25T13:15:34;4.90;99.90
37646;DHT22;23489;49.600;6.138;2023-11-25T13:18:00;4.80;99.90
37646;DHT22;23489;49.600;6.138;2023-11-25T13:20:26;4.80;99.90
37646;DHT22;23489;49.600;6.138;2023-11-25T13:22:52;4.80;99.90
37646;DHT22;23489;49.600;6.138;2023-11-25T13:25:17;4.90;99.90
37646;DHT22;23489;49.600;6.138;2023-11-25T13:27:44;4.80;99.90
37646;DHT22;23489;49.600;6.138;2023-11-25T13:30:10;5.00;99.90
37646;DHT22;23489;49.600;6.138;2023-11-25T13:32:36;5.00;99.90
37646;DHT22;23489;49.600;6.138;2023-11-25T13:35:02;5.10;99.90
37646;DHT22;23489;49.600;6.138;2023-11-25T13:37:28;5.10;99.90
37646;DHT22;23489;49.600;6.138;2023-11-25T13:39:54;5.10;99.90
37646;DHT22;23489;49.600;6.138;2023-11-25T13:42:19;5.10;99.90
37646;DHT22;23489;49.600;6.138;2023-11-25T13:44:47;5.10;99.90
37646;DHT22;23489;49.600;6.138;2023-11-25T13:47:12;5.00;99.90
37646;DHT22;23489;49.600;6.138;2023-11-25T13:49:38;5.10;99.90
37646;DHT22;23489;49.600;6.138;2023-11-25T13:52:04;5.10;99.90
37646;DHT22;23489;49.600;6.138;2023-11-25T13:54:31;5.20;99.90
37646;DHT22;23489;49.600;6.138;2023-11-25T13:56:56;5.20;99.90
37646;DHT22;23489;49.600;6.138;2023-11-25T13:59:22;5.30;99.90
37646;DHT22;23489;49.600;6.138;2023-11-25T14:01:48;5.30;99.90
37646;DHT22;23489;49.600;6.138;2023-11-25T14:04:14;5.40;99.90
37646;DHT22;23489;49.600;6.138;2023-11-25T14:06:39;5.40;99.90
37646;DHT22;23489;49.600;6.138;2023-11-25T14:09:05;5.30;99.90
37646;DHT22;23489;49.600;6.138;2023-11-25T14:11:30;5.30;99.90
37646;DHT22;23489;49.600;6.138;2023-11-25T14:13:57;5.20;99.90
37646;DHT22;23489;49.600;6.138;2023-11-25T14:16:22;5.20;99.90
37646;DHT22;23489;49.600;6.138;2023-11-25T14:18:49;5.10;99.90
37646;DHT22;23489;49.600;6.138;2023-11-25T14:21:15;5.00;99.90
37646;DHT22;23489;49.600;6.138;2023-11-25T14:23:40;4.90;99.90
37646;DHT22;23489;49.600;6.138;2023-11-25T14:26:06;4.90;99.90
37646;DHT22;23489;49.600;6.138;2023-11-25T14:28:32;4.90;99.90
37646;DHT22;23489;49.600;6.138;2023-11-25T14:30:57;4.90;99.90
37646;DHT22;23489;49.600;6.138;2023-11-25T14:33:23;4.90;99.90
37646;DHT22;23489;49.600;6.138;2023-11-25T14:35:49;4.90;99.90
37646;DHT22;23489;49.600;6.138;2023-11-25T14:38:14;4.80;99.90
37646;DHT22;23489;49.600;6.138;2023-11-25T14:40:40;4.80;99.90
37646;DHT22;23489;49.600;6.138;2023-11-25T14:43:05;4.80;99.90
37646;DHT22;23489;49.600;6.138;2023-11-25T14:45:31;4.80;99.90
37646;DHT22;23489;49.600;6.138;2023-11-25T14:47:56;4.80;99.90
37646;DHT22;23489;49.600;6.138;2023-11-25T14:50:22;4.80;99.90
37646;DHT22;23489;49.600;6.138;2023-11-25T14:52:49;4.70;99.90
37646;DHT22;23489;49.600;6.138;2023-11-25T14:55:15;4.60;99.90
37646;DHT22;23489;49.600;6.138;2023-11-25T14:57:41;4.60;99.90
37646;DHT22;23489;49.600;6.138;2023-11-25T15:00:09;4.50;99.90
37646;DHT22;23489;49.600;6.138;2023-11-25T15:02:36;4.40;99.90
37646;DHT22;23489;49.600;6.138;2023-11-25T15:05:05;4.40;99.90
37646;DHT22;23489;49.600;6.138;2023-11-25T15:07:31;4.40;99.90
37646;DHT22;23489;49.600;6.138;2023-11-25T15:09:56;4.30;99.90
37646;DHT22;23489;49.600;6.138;2023-11-25T15:12:22;4.30;99.90
37646;DHT22;23489;49.600;6.138;2023-11-25T15:14:48;4.30;99.90
37646;DHT22;23489;49.600;6.138;2023-11-25T15:17:14;4.30;99.90
37646;DHT22;23489;49.600;6.138;2023-11-25T15:19:40;4.20;99.90
37646;DHT22;23489;49.600;6.138;2023-11-25T15:22:09;4.20;99.90
37646;DHT22;23489;49.600;6.138;2023-11-25T15:24:36;4.20;99.90
37646;DHT22;23489;49.600;6.138;2023-11-25T15:27:03;4.20;99.90
37646;DHT22;23489;49.600;6.138;2023-11-25T15:29:28;4.10;99.90
37646;DHT22;23489;49.600;6.138;2023-11-25T15:31:55;4.00;99.90
37646;DHT22;23489;49.600;6.138;2023-11-25T15:34:20;4.00;99.90
37646;DHT22;23489;49.600;6.138;2023-11-25T15:36:46;4.00;99.90
37646;DHT22;23489;49.600;6.138;2023-11-25T15:39:12;4.00;99.90
37646;DHT22;23489;49.600;6.138;2023-11-25T15:41:41;4.00;99.90
37646;DHT22;23489;49.600;6.138;2023-11-25T15:44:07;4.10;99.90
37646;DHT22;23489;49.600;6.138;2023-11-25T15:46:33;4.10;99.90
37646;DHT22;23489;49.600;6.138;2023-11-25T15:48:59;4.00;99.90
37646;DHT22;23489;49.600;6.138;2023-11-25T15:51:24;4.00;99.90